AFL110 URMM-URMM
Flight info
| Callsign | AFL110 |
|---|---|
| Flight time | 0h 29m |
| Altitude | 15000 |
| Route | D114E DCT MM010 DCT MM023 DCT LARIN DCT OTMOK DCT D294C |
| Aircraft | B77W/H-SDE1E2E3FGHIJ2J3J4J5M1RWXY/LB1D1 |
Departure
| Time | 2026-04-25 23:31 |
|---|---|
| Airport | Mineralnye Vody Airport (URMM) |
Arrival
| Time | 2026-04-26 00:01 |
|---|---|
| Airport | Mineralnye Vody Airport (URMM) |
| Time | Latitude | Longitude | Altitude | Speed | Heading |
|---|---|---|---|---|---|
| 2026-04-25 23:17 | 44.21727 | 43.09330 | 1056 ft | 0 kts | 236° |
| 2026-04-25 23:23 | 44.21731 | 43.09277 | 1056 ft | 10 kts | 290° |
| 2026-04-25 23:23 | 44.21761 | 43.09199 | 1056 ft | 0 kts | 302° |
| 2026-04-25 23:23 | 44.21768 | 43.09182 | 1056 ft | 6 kts | 302° |
| 2026-04-25 23:23 | 44.21806 | 43.09098 | 1056 ft | 10 kts | 302° |
| 2026-04-25 23:24 | 44.21866 | 43.09071 | 1056 ft | 11 kts | 20° |
| 2026-04-25 23:24 | 44.21937 | 43.09121 | 1056 ft | 12 kts | 17° |
| 2026-04-25 23:24 | 44.22020 | 43.09091 | 1056 ft | 13 kts | 334° |
| 2026-04-25 23:24 | 44.22103 | 43.09033 | 1057 ft | 13 kts | 333° |
| 2026-04-25 23:25 | 44.22183 | 43.08975 | 1058 ft | 13 kts | 331° |
| 2026-04-25 23:25 | 44.22269 | 43.08909 | 1058 ft | 15 kts | 331° |
| 2026-04-25 23:25 | 44.22368 | 43.08837 | 1057 ft | 17 kts | 332° |
| 2026-04-25 23:25 | 44.22465 | 43.08748 | 1060 ft | 17 kts | 316° |
| 2026-04-25 23:26 | 44.22558 | 43.08574 | 1058 ft | 27 kts | 303° |
| 2026-04-25 23:26 | 44.22657 | 43.08354 | 1056 ft | 27 kts | 302° |
| 2026-04-25 23:26 | 44.22756 | 43.08133 | 1055 ft | 27 kts | 302° |
| 2026-04-25 23:26 | 44.22856 | 43.07914 | 1054 ft | 27 kts | 303° |
| 2026-04-25 23:27 | 44.22956 | 43.07698 | 1055 ft | 27 kts | 302° |
| 2026-04-25 23:27 | 44.23055 | 43.07479 | 1057 ft | 27 kts | 302° |
| 2026-04-25 23:27 | 44.23154 | 43.07259 | 1053 ft | 27 kts | 302° |
| 2026-04-25 23:27 | 44.23253 | 43.07039 | 1050 ft | 27 kts | 302° |
| 2026-04-25 23:28 | 44.23352 | 43.06820 | 1051 ft | 27 kts | 302° |
| 2026-04-25 23:28 | 44.23449 | 43.06605 | 1056 ft | 24 kts | 302° |
| 2026-04-25 23:28 | 44.23528 | 43.06432 | 1055 ft | 14 kts | 305° |
| 2026-04-25 23:28 | 44.23570 | 43.06354 | 1056 ft | 0 kts | 317° |
| 2026-04-25 23:29 | 44.23594 | 43.06332 | 1056 ft | 3 kts | 284° |
| 2026-04-25 23:29 | 44.23576 | 43.06337 | 1056 ft | 10 kts | 144° |
| 2026-04-25 23:29 | 44.23541 | 43.06403 | 1055 ft | 1 kts | 123° |
| 2026-04-25 23:29 | 44.23540 | 43.06404 | 1055 ft | 0 kts | 123° |
| 2026-04-25 23:31 | 44.23371 | 43.06776 | 1052 ft | 120 kts | 122° |
| 2026-04-25 23:31 | 44.22660 | 43.08343 | 1185 ft | 250 kts | 122° |
| 2026-04-25 23:31 | 44.21726 | 43.10530 | 2645 ft | 255 kts | 121° |
| 2026-04-25 23:32 | 44.20791 | 43.12672 | 5019 ft | 265 kts | 123° |
| 2026-04-25 23:32 | 44.19772 | 43.14849 | 7641 ft | 268 kts | 125° |
| 2026-04-25 23:32 | 44.18764 | 43.17008 | 10265 ft | 263 kts | 128° |
| 2026-04-25 23:32 | 44.17737 | 43.19225 | 11990 ft | 292 kts | 127° |
| 2026-04-25 23:33 | 44.16571 | 43.21682 | 13526 ft | 308 kts | 127° |
| 2026-04-25 23:33 | 44.15390 | 43.24110 | 15625 ft | 297 kts | 128° |
| 2026-04-25 23:33 | 44.14174 | 43.26569 | 16424 ft | 335 kts | 122° |
| 2026-04-25 23:33 | 44.13495 | 43.29683 | 16106 ft | 339 kts | 91° |
| 2026-04-25 23:34 | 44.13940 | 43.32862 | 15888 ft | 336 kts | 60° |
| 2026-04-25 23:34 | 44.15378 | 43.35344 | 15641 ft | 329 kts | 31° |
| 2026-04-25 23:34 | 44.17353 | 43.36831 | 15442 ft | 320 kts | 21° |
| 2026-04-25 23:34 | 44.19354 | 43.38234 | 15314 ft | 323 kts | 22° |
| 2026-04-25 23:35 | 44.21340 | 43.39683 | 15223 ft | 323 kts | 23° |
| 2026-04-25 23:35 | 44.23324 | 43.41149 | 15175 ft | 322 kts | 23° |
| 2026-04-25 23:35 | 44.25297 | 43.42613 | 15133 ft | 320 kts | 23° |
| 2026-04-25 23:35 | 44.27228 | 43.44049 | 15128 ft | 317 kts | 23° |
| 2026-04-25 23:36 | 44.29172 | 43.45498 | 15121 ft | 316 kts | 23° |
| 2026-04-25 23:36 | 44.31110 | 43.46944 | 15123 ft | 315 kts | 23° |
| 2026-04-25 23:36 | 44.33047 | 43.48359 | 15120 ft | 311 kts | 18° |
| 2026-04-25 23:36 | 44.35129 | 43.48983 | 15138 ft | 306 kts | 353° |
| 2026-04-25 23:37 | 44.37161 | 43.48314 | 15139 ft | 298 kts | 329° |
| 2026-04-25 23:37 | 44.38848 | 43.46704 | 15138 ft | 291 kts | 312° |
| 2026-04-25 23:37 | 44.40093 | 43.44510 | 15135 ft | 287 kts | 301° |
| 2026-04-25 23:37 | 44.41175 | 43.42225 | 15117 ft | 275 kts | 300° |
| 2026-04-25 23:38 | 44.42188 | 43.40033 | 15112 ft | 261 kts | 300° |
| 2026-04-25 23:38 | 44.43146 | 43.37956 | 15119 ft | 247 kts | 300° |
| 2026-04-25 23:38 | 44.44045 | 43.36015 | 15115 ft | 238 kts | 300° |
| 2026-04-25 23:38 | 44.44971 | 43.34020 | 15143 ft | 243 kts | 300° |
| 2026-04-25 23:39 | 44.45891 | 43.32043 | 15134 ft | 242 kts | 300° |
| 2026-04-25 23:39 | 44.46812 | 43.30072 | 15132 ft | 241 kts | 300° |
| 2026-04-25 23:39 | 44.47717 | 43.28139 | 15130 ft | 240 kts | 300° |
| 2026-04-25 23:39 | 44.48631 | 43.26188 | 15131 ft | 239 kts | 300° |
| 2026-04-25 23:40 | 44.49544 | 43.24242 | 15131 ft | 238 kts | 300° |
| 2026-04-25 23:40 | 44.50453 | 43.22304 | 15132 ft | 237 kts | 300° |
| 2026-04-25 23:40 | 44.51360 | 43.20372 | 15132 ft | 237 kts | 300° |
| 2026-04-25 23:40 | 44.52263 | 43.18446 | 15130 ft | 237 kts | 300° |
| 2026-04-25 23:41 | 44.53165 | 43.16520 | 15131 ft | 236 kts | 300° |
| 2026-04-25 23:41 | 44.54071 | 43.14587 | 15132 ft | 237 kts | 300° |
| 2026-04-25 23:41 | 44.54974 | 43.12657 | 15133 ft | 237 kts | 300° |
| 2026-04-25 23:41 | 44.55879 | 43.10724 | 15133 ft | 238 kts | 300° |
| 2026-04-25 23:42 | 44.56789 | 43.08779 | 15127 ft | 239 kts | 300° |
| 2026-04-25 23:42 | 44.57702 | 43.06825 | 15137 ft | 239 kts | 300° |
| 2026-04-25 23:42 | 44.58604 | 43.04896 | 15134 ft | 240 kts | 300° |
| 2026-04-25 23:42 | 44.59505 | 43.02929 | 15122 ft | 236 kts | 294° |
| 2026-04-25 23:43 | 44.59947 | 43.00756 | 15134 ft | 231 kts | 272° |
| 2026-04-25 23:43 | 44.59924 | 42.98498 | 15137 ft | 232 kts | 267° |
| 2026-04-25 23:43 | 44.59846 | 42.96225 | 15114 ft | 235 kts | 267° |
| 2026-04-25 23:43 | 44.59762 | 42.93904 | 14777 ft | 241 kts | 267° |
| 2026-04-25 23:44 | 44.59676 | 42.91536 | 14336 ft | 245 kts | 267° |
| 2026-04-25 23:44 | 44.59589 | 42.89135 | 13927 ft | 248 kts | 267° |
| 2026-04-25 23:44 | 44.59502 | 42.86700 | 13465 ft | 251 kts | 267° |
| 2026-04-25 23:44 | 44.59415 | 42.84240 | 12984 ft | 254 kts | 267° |
| 2026-04-25 23:45 | 44.59329 | 42.81785 | 12541 ft | 256 kts | 267° |
| 2026-04-25 23:45 | 44.59242 | 42.79288 | 12157 ft | 254 kts | 267° |
| 2026-04-25 23:45 | 44.59155 | 42.76818 | 11726 ft | 254 kts | 267° |
| 2026-04-25 23:45 | 44.59068 | 42.74339 | 11270 ft | 254 kts | 266° |
| 2026-04-25 23:46 | 44.58981 | 42.71867 | 10813 ft | 254 kts | 266° |
| 2026-04-25 23:46 | 44.58894 | 42.69400 | 10387 ft | 253 kts | 266° |
| 2026-04-25 23:46 | 44.58806 | 42.66942 | 9947 ft | 252 kts | 266° |
| 2026-04-25 23:46 | 44.58721 | 42.64519 | 9453 ft | 243 kts | 266° |
| 2026-04-25 23:47 | 44.58638 | 42.62204 | 8968 ft | 232 kts | 267° |
| 2026-04-25 23:47 | 44.58557 | 42.59977 | 8489 ft | 225 kts | 267° |
| 2026-04-25 23:47 | 44.58478 | 42.57819 | 8026 ft | 219 kts | 267° |
| 2026-04-25 23:47 | 44.58401 | 42.55714 | 7560 ft | 213 kts | 268° |
| 2026-04-25 23:48 | 44.58325 | 42.53659 | 7115 ft | 209 kts | 268° |
| 2026-04-25 23:48 | 44.58251 | 42.51665 | 6675 ft | 205 kts | 268° |
| 2026-04-25 23:48 | 44.58158 | 42.49679 | 6200 ft | 203 kts | 262° |
| 2026-04-25 23:48 | 44.57539 | 42.47922 | 5703 ft | 206 kts | 229° |
| 2026-04-25 23:49 | 44.56310 | 42.46892 | 5309 ft | 208 kts | 199° |
| 2026-04-25 23:49 | 44.54893 | 42.46863 | 5181 ft | 203 kts | 169° |
| 2026-04-25 23:49 | 44.53637 | 42.47761 | 5149 ft | 209 kts | 141° |
| 2026-04-25 23:49 | 44.52682 | 42.49304 | 5140 ft | 210 kts | 128° |
| 2026-04-25 23:50 | 44.51841 | 42.50940 | 5123 ft | 204 kts | 126° |
| 2026-04-25 23:50 | 44.51031 | 42.52552 | 5084 ft | 201 kts | 126° |
| 2026-04-25 23:50 | 44.50224 | 42.54155 | 5051 ft | 201 kts | 126° |
| 2026-04-25 23:50 | 44.49414 | 42.55757 | 5037 ft | 201 kts | 126° |
| 2026-04-25 23:51 | 44.48612 | 42.57336 | 5007 ft | 202 kts | 127° |
| 2026-04-25 23:51 | 44.47798 | 42.58931 | 4980 ft | 202 kts | 127° |
| 2026-04-25 23:51 | 44.46982 | 42.60527 | 4964 ft | 201 kts | 127° |
| 2026-04-25 23:51 | 44.46165 | 42.62127 | 4949 ft | 201 kts | 126° |
| 2026-04-25 23:52 | 44.45350 | 42.63718 | 4927 ft | 201 kts | 127° |
| 2026-04-25 23:52 | 44.44509 | 42.65270 | 4883 ft | 199 kts | 134° |
| 2026-04-25 23:52 | 44.43557 | 42.66678 | 4865 ft | 199 kts | 133° |
| 2026-04-25 23:52 | 44.42609 | 42.68086 | 4838 ft | 199 kts | 135° |
| 2026-04-25 23:53 | 44.41642 | 42.69469 | 4812 ft | 199 kts | 135° |
| 2026-04-25 23:53 | 44.40671 | 42.70849 | 4776 ft | 199 kts | 136° |
| 2026-04-25 23:53 | 44.39693 | 42.72238 | 4658 ft | 203 kts | 136° |
| 2026-04-25 23:53 | 44.38708 | 42.73634 | 4425 ft | 197 kts | 136° |
| 2026-04-25 23:54 | 44.37819 | 42.75051 | 4174 ft | 191 kts | 128° |
| 2026-04-25 23:54 | 44.37070 | 42.76559 | 3901 ft | 186 kts | 125° |
| 2026-04-25 23:54 | 44.36382 | 42.78042 | 3641 ft | 182 kts | 125° |
| 2026-04-25 23:54 | 44.35715 | 42.79505 | 3433 ft | 174 kts | 125° |
| 2026-04-25 23:55 | 44.35094 | 42.80879 | 3178 ft | 160 kts | 125° |
| 2026-04-25 23:55 | 44.34508 | 42.82174 | 3089 ft | 158 kts | 125° |
| 2026-04-25 23:55 | 44.33918 | 42.83478 | 3053 ft | 159 kts | 125° |
| 2026-04-25 23:55 | 44.33331 | 42.84775 | 3029 ft | 157 kts | 125° |
| 2026-04-25 23:56 | 44.32754 | 42.86053 | 3034 ft | 155 kts | 125° |
| 2026-04-25 23:56 | 44.32174 | 42.87335 | 3000 ft | 156 kts | 125° |
| 2026-04-25 23:56 | 44.31597 | 42.88614 | 2987 ft | 153 kts | 125° |
| 2026-04-25 23:56 | 44.31049 | 42.89827 | 2984 ft | 144 kts | 126° |
| 2026-04-25 23:57 | 44.30524 | 42.90987 | 2983 ft | 140 kts | 126° |
| 2026-04-25 23:57 | 44.30002 | 42.92141 | 2990 ft | 141 kts | 126° |
| 2026-04-25 23:57 | 44.29479 | 42.93295 | 2981 ft | 141 kts | 126° |
| 2026-04-25 23:57 | 44.28952 | 42.94460 | 2984 ft | 142 kts | 126° |
| 2026-04-25 23:58 | 44.28416 | 42.95645 | 2828 ft | 145 kts | 126° |
| 2026-04-25 23:58 | 44.27895 | 42.96799 | 2644 ft | 140 kts | 126° |
| 2026-04-25 23:58 | 44.27380 | 42.97933 | 2452 ft | 137 kts | 126° |
| 2026-04-25 23:58 | 44.26874 | 42.99051 | 2260 ft | 136 kts | 124° |
| 2026-04-25 23:59 | 44.26365 | 43.00174 | 2076 ft | 138 kts | 123° |
| 2026-04-25 23:59 | 44.25847 | 43.01320 | 1881 ft | 140 kts | 124° |
| 2026-04-25 23:59 | 44.25329 | 43.02463 | 1694 ft | 139 kts | 123° |
| 2026-04-25 23:59 | 44.24813 | 43.03600 | 1505 ft | 139 kts | 122° |
| 2026-04-26 00:00 | 44.24297 | 43.04742 | 1336 ft | 140 kts | 122° |
| 2026-04-26 00:00 | 44.23779 | 43.05884 | 1151 ft | 139 kts | 122° |
| 2026-04-26 00:00 | 44.23271 | 43.07004 | 1050 ft | 130 kts | 123° |
| 2026-04-26 00:00 | 44.22866 | 43.07894 | 1055 ft | 83 kts | 122° |
| 2026-04-26 00:01 | 44.22660 | 43.08347 | 1056 ft | 35 kts | 122° |
| 2026-04-26 00:01 | 44.22557 | 43.08570 | 1058 ft | 27 kts | 123° |
| 2026-04-26 00:01 | 44.22464 | 43.08751 | 1060 ft | 21 kts | 139° |
| 2026-04-26 00:01 | 44.22331 | 43.08864 | 1057 ft | 23 kts | 152° |
| 2026-04-26 00:02 | 44.22203 | 43.08956 | 1058 ft | 12 kts | 152° |
| 2026-04-26 00:02 | 44.22122 | 43.09016 | 1057 ft | 13 kts | 152° |
| 2026-04-26 00:02 | 44.22034 | 43.09080 | 1056 ft | 16 kts | 152° |
| 2026-04-26 00:02 | 44.21941 | 43.09127 | 1056 ft | 10 kts | 200° |
| 2026-04-26 00:03 | 44.21872 | 43.09075 | 1056 ft | 12 kts | 209° |
| 2026-04-26 00:03 | 44.21813 | 43.09077 | 1056 ft | 4 kts | 129° |
| 2026-04-26 00:03 | 44.21771 | 43.09176 | 1056 ft | 14 kts | 122° |
| 2026-04-26 00:03 | 44.21721 | 43.09232 | 1056 ft | 11 kts | 179° |
| 2026-04-26 00:04 | 44.21678 | 43.09201 | 1056 ft | 4 kts | 212° |
| 2026-04-26 00:04 | 44.21673 | 43.09197 | 1056 ft | 0 kts | 212° |